<?xml version="1.0" encoding="UTF-8" standalone="no" ?>
<gpx xmlns="http://www.topografix.com/GPX/1/1" xmlns:xsi="http://www.w3.org/2001/XMLSchema-instance" xsi:schemaLocation="http://www.topografix.com/GPX/1/1 http://www.topografix.com/GPX/1/1/gpx.xsd" version="1.1" creator="VisuGPX - https://www.visugpx.com">
  <metadata>
    <name>12: Ravin de Renac - plateau de Bouissac</name>
    <desc><![CDATA[12: Ravin de Renac - plateau de Bouissac]]></desc>
  </metadata>
  <wpt lat="43.83631" lon="3.12279">
    <ele>520</ele>
    <name><![CDATA[Accueil PdC Centre]]></name>
  </wpt>
  <wpt lat="43.83657" lon="3.11798">
    <ele>530.1</ele>
    <name><![CDATA[PCD]]></name>
  </wpt>
  <wpt lat="43.83852" lon="3.10886">
    <ele>545</ele>
    <name><![CDATA[SBA]]></name>
  </wpt>
  <wpt lat="43.84037" lon="3.10487">
    <ele>550</ele>
    <name><![CDATA[MDF]]></name>
  </wpt>
  <wpt lat="43.83938" lon="3.10086">
    <ele>575</ele>
    <name><![CDATA[RRA]]></name>
  </wpt>
  <wpt lat="43.83979" lon="3.1007">
    <ele>575</ele>
    <name><![CDATA[RRB]]></name>
  </wpt>
  <wpt lat="43.83949" lon="3.09734">
    <ele>600</ele>
    <name><![CDATA[RRC]]></name>
  </wpt>
  <wpt lat="43.83901" lon="3.09634">
    <ele>600</ele>
    <name><![CDATA[CIC]]></name>
  </wpt>
  <wpt lat="43.83553" lon="3.0884">
    <ele>690.1</ele>
    <name><![CDATA[RRD]]></name>
  </wpt>
  <wpt lat="43.83513" lon="3.08833">
    <ele>685.1</ele>
    <name><![CDATA[CSD]]></name>
  </wpt>
  <wpt lat="43.83343" lon="3.08648">
    <ele>710.1</ele>
    <name><![CDATA[RRE]]></name>
  </wpt>
  <wpt lat="43.83322" lon="3.08584">
    <ele>715.1</ele>
    <name><![CDATA[RRF]]></name>
  </wpt>
  <wpt lat="43.83209" lon="3.08439">
    <ele>735.1</ele>
    <name><![CDATA[RRG]]></name>
  </wpt>
  <wpt lat="43.83174" lon="3.0841">
    <ele>744.9</ele>
    <name><![CDATA[RRH]]></name>
  </wpt>
  <wpt lat="43.83134" lon="3.0844">
    <ele>750</ele>
    <name><![CDATA[RRI]]></name>
  </wpt>
  <wpt lat="43.83098" lon="3.08409">
    <ele>760</ele>
    <name><![CDATA[RRJ]]></name>
  </wpt>
  <wpt lat="43.82993" lon="3.08688">
    <ele>760</ele>
    <name><![CDATA[BSH]]></name>
  </wpt>
  <wpt lat="43.82984" lon="3.08947">
    <ele>750</ele>
    <name><![CDATA[RNX]]></name>
  </wpt>
  <wpt lat="43.82828" lon="3.09049">
    <ele>750</ele>
    <name><![CDATA[BSG]]></name>
  </wpt>
  <wpt lat="43.829" lon="3.09582">
    <ele>755</ele>
    <name><![CDATA[BSF]]></name>
  </wpt>
  <wpt lat="43.82858" lon="3.09742">
    <ele>740.1</ele>
    <name><![CDATA[BSK]]></name>
  </wpt>
  <wpt lat="43.82969" lon="3.09937">
    <ele>744.9</ele>
    <name><![CDATA[BSE]]></name>
  </wpt>
  <wpt lat="43.83393" lon="3.10913">
    <ele>690</ele>
    <name><![CDATA[BRG]]></name>
  </wpt>
  <wpt lat="43.83616" lon="3.1138">
    <ele>589.9</ele>
    <name><![CDATA[BRB]]></name>
  </wpt>
  <wpt lat="43.83618" lon="3.11496">
    <ele>569.9</ele>
    <name><![CDATA[BRA]]></name>
  </wpt>
  <trk>
    <name><![CDATA[RoTr 12 PdC]]></name>
    <trkseg>
      <trkpt lat="43.83657" lon="3.11796">
        <ele>535</ele>
        <time>2010-01-01T00:00:00Z</time>
      </trkpt>
      <trkpt lat="43.83657" lon="3.11737">
        <ele>535</ele>
        <time>2010-01-01T00:01:31Z</time>
      </trkpt>
      <trkpt lat="43.83653" lon="3.11697">
        <ele>538</ele>
        <time>2010-01-01T00:02:34Z</time>
      </trkpt>
      <trkpt lat="43.83668" lon="3.11564">
        <ele>543</ele>
        <time>2010-01-01T00:06:05Z</time>
      </trkpt>
      <trkpt lat="43.83684" lon="3.11478">
        <ele>549</ele>
        <time>2010-01-01T00:08:22Z</time>
      </trkpt>
      <trkpt lat="43.83773" lon="3.11139">
        <ele>558</ele>
        <time>2010-01-01T00:17:46Z</time>
      </trkpt>
      <trkpt lat="43.83772" lon="3.11082">
        <ele>561</ele>
        <time>2010-01-01T00:19:15Z</time>
      </trkpt>
      <trkpt lat="43.83821" lon="3.10925">
        <ele>554</ele>
        <time>2010-01-01T00:23:42Z</time>
      </trkpt>
      <trkpt lat="43.83851" lon="3.10883">
        <ele>555</ele>
        <time>2010-01-01T00:25:14Z</time>
      </trkpt>
      <trkpt lat="43.83853" lon="3.10881">
        <ele>555</ele>
        <time>2010-01-01T00:25:19Z</time>
      </trkpt>
      <trkpt lat="43.83897" lon="3.10809">
        <ele>556</ele>
        <time>2010-01-01T00:27:46Z</time>
      </trkpt>
      <trkpt lat="43.83932" lon="3.10747">
        <ele>558</ele>
        <time>2010-01-01T00:29:50Z</time>
      </trkpt>
      <trkpt lat="43.8405" lon="3.10519">
        <ele>564</ele>
        <time>2010-01-01T00:37:08Z</time>
      </trkpt>
      <trkpt lat="43.84048" lon="3.10503">
        <ele>563</ele>
        <time>2010-01-01T00:37:33Z</time>
      </trkpt>
      <trkpt lat="43.84038" lon="3.10488">
        <ele>564</ele>
        <time>2010-01-01T00:38:05Z</time>
      </trkpt>
      <trkpt lat="43.84036" lon="3.10484">
        <ele>564</ele>
        <time>2010-01-01T00:38:12Z</time>
      </trkpt>
      <trkpt lat="43.84034" lon="3.10459">
        <ele>564</ele>
        <time>2010-01-01T00:38:51Z</time>
      </trkpt>
      <trkpt lat="43.84019" lon="3.10414">
        <ele>565</ele>
        <time>2010-01-01T00:40:09Z</time>
      </trkpt>
      <trkpt lat="43.83992" lon="3.10281">
        <ele>577</ele>
        <time>2010-01-01T00:43:45Z</time>
      </trkpt>
      <trkpt lat="43.83976" lon="3.10243">
        <ele>582</ele>
        <time>2010-01-01T00:44:54Z</time>
      </trkpt>
      <trkpt lat="43.83945" lon="3.10147">
        <ele>583</ele>
        <time>2010-01-01T00:47:38Z</time>
      </trkpt>
      <trkpt lat="43.83939" lon="3.1008">
        <ele>583</ele>
        <time>2010-01-01T00:49:23Z</time>
      </trkpt>
      <trkpt lat="43.83941" lon="3.10078">
        <ele>583</ele>
        <time>2010-01-01T00:49:28Z</time>
      </trkpt>
      <trkpt lat="43.83946" lon="3.1007">
        <ele>585</ele>
        <time>2010-01-01T00:49:43Z</time>
      </trkpt>
      <trkpt lat="43.83958" lon="3.10077">
        <ele>586</ele>
        <time>2010-01-01T00:50:13Z</time>
      </trkpt>
      <trkpt lat="43.83968" lon="3.10062">
        <ele>589</ele>
        <time>2010-01-01T00:50:44Z</time>
      </trkpt>
      <trkpt lat="43.83979" lon="3.10058">
        <ele>590</ele>
        <time>2010-01-01T00:51:09Z</time>
      </trkpt>
      <trkpt lat="43.83979" lon="3.10057">
        <ele>590</ele>
        <time>2010-01-01T00:51:09Z</time>
      </trkpt>
      <trkpt lat="43.8398" lon="3.10007">
        <ele>595</ele>
        <time>2010-01-01T00:52:27Z</time>
      </trkpt>
      <trkpt lat="43.83974" lon="3.09975">
        <ele>597</ele>
        <time>2010-01-01T00:53:20Z</time>
      </trkpt>
      <trkpt lat="43.83978" lon="3.09935">
        <ele>601</ele>
        <time>2010-01-01T00:54:22Z</time>
      </trkpt>
      <trkpt lat="43.83976" lon="3.09871">
        <ele>608</ele>
        <time>2010-01-01T00:56:03Z</time>
      </trkpt>
      <trkpt lat="43.83949" lon="3.09771">
        <ele>613</ele>
        <time>2010-01-01T00:58:50Z</time>
      </trkpt>
      <trkpt lat="43.83948" lon="3.09748">
        <ele>615</ele>
        <time>2010-01-01T00:59:26Z</time>
      </trkpt>
      <trkpt lat="43.83956" lon="3.09735">
        <ele>618</ele>
        <time>2010-01-01T00:59:51Z</time>
      </trkpt>
      <trkpt lat="43.83955" lon="3.09734">
        <ele>618</ele>
        <time>2010-01-01T00:59:54Z</time>
      </trkpt>
      <trkpt lat="43.83938" lon="3.09668">
        <ele>617</ele>
        <time>2010-01-01T01:01:44Z</time>
      </trkpt>
      <trkpt lat="43.83923" lon="3.09632">
        <ele>619</ele>
        <time>2010-01-01T01:02:48Z</time>
      </trkpt>
      <trkpt lat="43.83913" lon="3.09624">
        <ele>618</ele>
        <time>2010-01-01T01:03:13Z</time>
      </trkpt>
      <trkpt lat="43.83905" lon="3.09627">
        <ele>620</ele>
        <time>2010-01-01T01:03:31Z</time>
      </trkpt>
      <trkpt lat="43.839" lon="3.09635">
        <ele>620</ele>
        <time>2010-01-01T01:03:48Z</time>
      </trkpt>
      <trkpt lat="43.839" lon="3.09636">
        <ele>620</ele>
        <time>2010-01-01T01:03:49Z</time>
      </trkpt>
      <trkpt lat="43.83891" lon="3.0963">
        <ele>623</ele>
        <time>2010-01-01T01:04:09Z</time>
      </trkpt>
      <trkpt lat="43.83875" lon="3.09582">
        <ele>627</ele>
        <time>2010-01-01T01:05:32Z</time>
      </trkpt>
      <trkpt lat="43.83809" lon="3.09474">
        <ele>634</ele>
        <time>2010-01-01T01:09:13Z</time>
      </trkpt>
      <trkpt lat="43.8375" lon="3.09376">
        <ele>639</ele>
        <time>2010-01-01T01:12:33Z</time>
      </trkpt>
      <trkpt lat="43.83688" lon="3.09327">
        <ele>645</ele>
        <time>2010-01-01T01:15:07Z</time>
      </trkpt>
      <trkpt lat="43.83663" lon="3.0927">
        <ele>647</ele>
        <time>2010-01-01T01:16:51Z</time>
      </trkpt>
      <trkpt lat="43.83655" lon="3.09217">
        <ele>652</ele>
        <time>2010-01-01T01:18:16Z</time>
      </trkpt>
      <trkpt lat="43.83657" lon="3.0916">
        <ele>659</ele>
        <time>2010-01-01T01:19:45Z</time>
      </trkpt>
      <trkpt lat="43.83647" lon="3.09018">
        <ele>677</ele>
        <time>2010-01-01T01:23:28Z</time>
      </trkpt>
      <trkpt lat="43.83586" lon="3.08907">
        <ele>684</ele>
        <time>2010-01-01T01:27:06Z</time>
      </trkpt>
      <trkpt lat="43.8355" lon="3.08852">
        <ele>695</ele>
        <time>2010-01-01T01:29:02Z</time>
      </trkpt>
      <trkpt lat="43.83554" lon="3.08834">
        <ele>697</ele>
        <time>2010-01-01T01:29:31Z</time>
      </trkpt>
      <trkpt lat="43.83554" lon="3.08834">
        <ele>697</ele>
        <time>2010-01-01T01:29:33Z</time>
      </trkpt>
      <trkpt lat="43.83526" lon="3.08822">
        <ele>698</ele>
        <time>2010-01-01T01:30:35Z</time>
      </trkpt>
      <trkpt lat="43.83518" lon="3.08824">
        <ele>697</ele>
        <time>2010-01-01T01:30:53Z</time>
      </trkpt>
      <trkpt lat="43.83514" lon="3.08833">
        <ele>696</ele>
        <time>2010-01-01T01:31:09Z</time>
      </trkpt>
      <trkpt lat="43.83514" lon="3.08834">
        <ele>696</ele>
        <time>2010-01-01T01:31:10Z</time>
      </trkpt>
      <trkpt lat="43.8341" lon="3.08759">
        <ele>707</ele>
        <time>2010-01-01T01:35:24Z</time>
      </trkpt>
      <trkpt lat="43.83359" lon="3.08701">
        <ele>715</ele>
        <time>2010-01-01T01:37:46Z</time>
      </trkpt>
      <trkpt lat="43.83346" lon="3.08674">
        <ele>715</ele>
        <time>2010-01-01T01:38:36Z</time>
      </trkpt>
      <trkpt lat="43.83332" lon="3.08652">
        <ele>715</ele>
        <time>2010-01-01T01:39:23Z</time>
      </trkpt>
      <trkpt lat="43.83333" lon="3.08651">
        <ele>715</ele>
        <time>2010-01-01T01:39:25Z</time>
      </trkpt>
      <trkpt lat="43.83339" lon="3.0862">
        <ele>721</ele>
        <time>2010-01-01T01:40:15Z</time>
      </trkpt>
      <trkpt lat="43.8332" lon="3.08585">
        <ele>726</ele>
        <time>2010-01-01T01:41:23Z</time>
      </trkpt>
      <trkpt lat="43.8332" lon="3.08585">
        <ele>726</ele>
        <time>2010-01-01T01:41:24Z</time>
      </trkpt>
      <trkpt lat="43.833" lon="3.08537">
        <ele>732</ele>
        <time>2010-01-01T01:42:50Z</time>
      </trkpt>
      <trkpt lat="43.83236" lon="3.08472">
        <ele>739</ele>
        <time>2010-01-01T01:45:41Z</time>
      </trkpt>
      <trkpt lat="43.8322" lon="3.08473">
        <ele>742</ele>
        <time>2010-01-01T01:46:17Z</time>
      </trkpt>
      <trkpt lat="43.83203" lon="3.0845">
        <ele>745</ele>
        <time>2010-01-01T01:47:08Z</time>
      </trkpt>
      <trkpt lat="43.83202" lon="3.08449">
        <ele>746</ele>
        <time>2010-01-01T01:47:11Z</time>
      </trkpt>
      <trkpt lat="43.83191" lon="3.08436">
        <ele>747</ele>
        <time>2010-01-01T01:47:41Z</time>
      </trkpt>
      <trkpt lat="43.8318" lon="3.08415">
        <ele>749</ele>
        <time>2010-01-01T01:48:22Z</time>
      </trkpt>
      <trkpt lat="43.83179" lon="3.08414">
        <ele>750</ele>
        <time>2010-01-01T01:48:25Z</time>
      </trkpt>
      <trkpt lat="43.83167" lon="3.08406">
        <ele>752</ele>
        <time>2010-01-01T01:48:55Z</time>
      </trkpt>
      <trkpt lat="43.83158" lon="3.08409">
        <ele>753</ele>
        <time>2010-01-01T01:49:15Z</time>
      </trkpt>
      <trkpt lat="43.83133" lon="3.08434">
        <ele>755</ele>
        <time>2010-01-01T01:50:22Z</time>
      </trkpt>
      <trkpt lat="43.83132" lon="3.08436">
        <ele>755</ele>
        <time>2010-01-01T01:50:25Z</time>
      </trkpt>
      <trkpt lat="43.83116" lon="3.08422">
        <ele>757</ele>
        <time>2010-01-01T01:51:05Z</time>
      </trkpt>
      <trkpt lat="43.83094" lon="3.08413">
        <ele>760</ele>
        <time>2010-01-01T01:51:55Z</time>
      </trkpt>
      <trkpt lat="43.83093" lon="3.08414">
        <ele>760</ele>
        <time>2010-01-01T01:51:58Z</time>
      </trkpt>
      <trkpt lat="43.83056" lon="3.08476">
        <ele>763</ele>
        <time>2010-01-01T01:54:04Z</time>
      </trkpt>
      <trkpt lat="43.83029" lon="3.08552">
        <ele>763</ele>
        <time>2010-01-01T01:56:16Z</time>
      </trkpt>
      <trkpt lat="43.83009" lon="3.08649">
        <ele>761</ele>
        <time>2010-01-01T01:58:53Z</time>
      </trkpt>
      <trkpt lat="43.82993" lon="3.08686">
        <ele>761</ele>
        <time>2010-01-01T02:00:00Z</time>
      </trkpt>
      <trkpt lat="43.82992" lon="3.0869">
        <ele>760</ele>
        <time>2010-01-01T02:00:08Z</time>
      </trkpt>
      <trkpt lat="43.83002" lon="3.08779">
        <ele>758</ele>
        <time>2010-01-01T02:02:27Z</time>
      </trkpt>
      <trkpt lat="43.83026" lon="3.08837">
        <ele>752</ele>
        <time>2010-01-01T02:04:13Z</time>
      </trkpt>
      <trkpt lat="43.83048" lon="3.08883">
        <ele>747</ele>
        <time>2010-01-01T02:05:39Z</time>
      </trkpt>
      <trkpt lat="43.8304" lon="3.08902">
        <ele>748</ele>
        <time>2010-01-01T02:06:14Z</time>
      </trkpt>
      <trkpt lat="43.83004" lon="3.0893">
        <ele>752</ele>
        <time>2010-01-01T02:07:43Z</time>
      </trkpt>
      <trkpt lat="43.82978" lon="3.08935">
        <ele>753</ele>
        <time>2010-01-01T02:08:39Z</time>
      </trkpt>
      <trkpt lat="43.82975" lon="3.08934">
        <ele>753</ele>
        <time>2010-01-01T02:08:46Z</time>
      </trkpt>
      <trkpt lat="43.82926" lon="3.08936">
        <ele>757</ele>
        <time>2010-01-01T02:10:33Z</time>
      </trkpt>
      <trkpt lat="43.82888" lon="3.08924">
        <ele>758</ele>
        <time>2010-01-01T02:11:56Z</time>
      </trkpt>
      <trkpt lat="43.82862" lon="3.08998">
        <ele>750</ele>
        <time>2010-01-01T02:14:05Z</time>
      </trkpt>
      <trkpt lat="43.82834" lon="3.0904">
        <ele>749</ele>
        <time>2010-01-01T02:15:33Z</time>
      </trkpt>
      <trkpt lat="43.82836" lon="3.09044">
        <ele>749</ele>
        <time>2010-01-01T02:15:40Z</time>
      </trkpt>
      <trkpt lat="43.82881" lon="3.09124">
        <ele>748</ele>
        <time>2010-01-01T02:18:19Z</time>
      </trkpt>
      <trkpt lat="43.8292" lon="3.09321">
        <ele>758</ele>
        <time>2010-01-01T02:23:37Z</time>
      </trkpt>
      <trkpt lat="43.82932" lon="3.09339">
        <ele>758</ele>
        <time>2010-01-01T02:24:17Z</time>
      </trkpt>
      <trkpt lat="43.82937" lon="3.09367">
        <ele>758</ele>
        <time>2010-01-01T02:25:01Z</time>
      </trkpt>
      <trkpt lat="43.82927" lon="3.09378">
        <ele>758</ele>
        <time>2010-01-01T02:25:29Z</time>
      </trkpt>
      <trkpt lat="43.82913" lon="3.09434">
        <ele>756</ele>
        <time>2010-01-01T02:27:01Z</time>
      </trkpt>
      <trkpt lat="43.82902" lon="3.09532">
        <ele>750</ele>
        <time>2010-01-01T02:29:36Z</time>
      </trkpt>
      <trkpt lat="43.82897" lon="3.09583">
        <ele>747</ele>
        <time>2010-01-01T02:30:56Z</time>
      </trkpt>
      <trkpt lat="43.82898" lon="3.09586">
        <ele>747</ele>
        <time>2010-01-01T02:31:02Z</time>
      </trkpt>
      <trkpt lat="43.82907" lon="3.09609">
        <ele>745</ele>
        <time>2010-01-01T02:31:43Z</time>
      </trkpt>
      <trkpt lat="43.82906" lon="3.09631">
        <ele>742</ele>
        <time>2010-01-01T02:32:17Z</time>
      </trkpt>
      <trkpt lat="43.8287" lon="3.09626">
        <ele>742</ele>
        <time>2010-01-01T02:33:35Z</time>
      </trkpt>
      <trkpt lat="43.82855" lon="3.09657">
        <ele>739</ele>
        <time>2010-01-01T02:34:33Z</time>
      </trkpt>
      <trkpt lat="43.82853" lon="3.0974">
        <ele>736</ele>
        <time>2010-01-01T02:36:43Z</time>
      </trkpt>
      <trkpt lat="43.82854" lon="3.09742">
        <ele>736</ele>
        <time>2010-01-01T02:36:48Z</time>
      </trkpt>
      <trkpt lat="43.82966" lon="3.09937">
        <ele>741</ele>
        <time>2010-01-01T02:43:17Z</time>
      </trkpt>
      <trkpt lat="43.82968" lon="3.09939">
        <ele>740</ele>
        <time>2010-01-01T02:43:22Z</time>
      </trkpt>
      <trkpt lat="43.83101" lon="3.10041">
        <ele>733</ele>
        <time>2010-01-01T02:48:51Z</time>
      </trkpt>
      <trkpt lat="43.83128" lon="3.10089">
        <ele>733</ele>
        <time>2010-01-01T02:50:25Z</time>
      </trkpt>
      <trkpt lat="43.83109" lon="3.10138">
        <ele>731</ele>
        <time>2010-01-01T02:51:51Z</time>
      </trkpt>
      <trkpt lat="43.83097" lon="3.1016">
        <ele>729</ele>
        <time>2010-01-01T02:52:35Z</time>
      </trkpt>
      <trkpt lat="43.83127" lon="3.10218">
        <ele>728</ele>
        <time>2010-01-01T02:54:27Z</time>
      </trkpt>
      <trkpt lat="43.83143" lon="3.10237">
        <ele>729</ele>
        <time>2010-01-01T02:55:11Z</time>
      </trkpt>
      <trkpt lat="43.83135" lon="3.10267">
        <ele>725</ele>
        <time>2010-01-01T02:56:01Z</time>
      </trkpt>
      <trkpt lat="43.83159" lon="3.10363">
        <ele>721</ele>
        <time>2010-01-01T02:58:39Z</time>
      </trkpt>
      <trkpt lat="43.83184" lon="3.10379">
        <ele>725</ele>
        <time>2010-01-01T02:59:38Z</time>
      </trkpt>
      <trkpt lat="43.83186" lon="3.1038">
        <ele>725</ele>
        <time>2010-01-01T02:59:43Z</time>
      </trkpt>
      <trkpt lat="43.83158" lon="3.10378">
        <ele>720</ele>
        <time>2010-01-01T03:00:43Z</time>
      </trkpt>
      <trkpt lat="43.83143" lon="3.10501">
        <ele>706</ele>
        <time>2010-01-01T03:03:57Z</time>
      </trkpt>
      <trkpt lat="43.83208" lon="3.10567">
        <ele>714</ele>
        <time>2010-01-01T03:06:52Z</time>
      </trkpt>
      <trkpt lat="43.83236" lon="3.10653">
        <ele>708</ele>
        <time>2010-01-01T03:09:20Z</time>
      </trkpt>
      <trkpt lat="43.83265" lon="3.10757">
        <ele>701</ele>
        <time>2010-01-01T03:12:13Z</time>
      </trkpt>
      <trkpt lat="43.8329" lon="3.10803">
        <ele>694</ele>
        <time>2010-01-01T03:13:44Z</time>
      </trkpt>
      <trkpt lat="43.83345" lon="3.1085">
        <ele>692</ele>
        <time>2010-01-01T03:16:03Z</time>
      </trkpt>
      <trkpt lat="43.83396" lon="3.10858">
        <ele>695</ele>
        <time>2010-01-01T03:17:55Z</time>
      </trkpt>
      <trkpt lat="43.83394" lon="3.10908">
        <ele>688</ele>
        <time>2010-01-01T03:19:13Z</time>
      </trkpt>
      <trkpt lat="43.83394" lon="3.10913">
        <ele>688</ele>
        <time>2010-01-01T03:19:20Z</time>
      </trkpt>
      <trkpt lat="43.8339" lon="3.10918">
        <ele>686</ele>
        <time>2010-01-01T03:19:30Z</time>
      </trkpt>
      <trkpt lat="43.83386" lon="3.10917">
        <ele>685</ele>
        <time>2010-01-01T03:19:40Z</time>
      </trkpt>
      <trkpt lat="43.83385" lon="3.10926">
        <ele>683</ele>
        <time>2010-01-01T03:19:54Z</time>
      </trkpt>
      <trkpt lat="43.83408" lon="3.10977">
        <ele>678</ele>
        <time>2010-01-01T03:21:28Z</time>
      </trkpt>
      <trkpt lat="43.83424" lon="3.1102">
        <ele>671</ele>
        <time>2010-01-01T03:22:44Z</time>
      </trkpt>
      <trkpt lat="43.83451" lon="3.11073">
        <ele>664</ele>
        <time>2010-01-01T03:24:25Z</time>
      </trkpt>
      <trkpt lat="43.83538" lon="3.11261">
        <ele>618</ele>
        <time>2010-01-01T03:30:14Z</time>
      </trkpt>
      <trkpt lat="43.83556" lon="3.11292">
        <ele>610</ele>
        <time>2010-01-01T03:31:15Z</time>
      </trkpt>
      <trkpt lat="43.83573" lon="3.1133">
        <ele>600</ele>
        <time>2010-01-01T03:32:26Z</time>
      </trkpt>
      <trkpt lat="43.83587" lon="3.11358">
        <ele>592</ele>
        <time>2010-01-01T03:33:19Z</time>
      </trkpt>
      <trkpt lat="43.83603" lon="3.11387">
        <ele>579</ele>
        <time>2010-01-01T03:34:16Z</time>
      </trkpt>
      <trkpt lat="43.8361" lon="3.11388">
        <ele>577</ele>
        <time>2010-01-01T03:34:32Z</time>
      </trkpt>
      <trkpt lat="43.83615" lon="3.1138">
        <ele>577</ele>
        <time>2010-01-01T03:34:48Z</time>
      </trkpt>
      <trkpt lat="43.83617" lon="3.11383">
        <ele>576</ele>
        <time>2010-01-01T03:34:55Z</time>
      </trkpt>
      <trkpt lat="43.83618" lon="3.11389">
        <ele>574</ele>
        <time>2010-01-01T03:35:04Z</time>
      </trkpt>
      <trkpt lat="43.83618" lon="3.11403">
        <ele>571</ele>
        <time>2010-01-01T03:35:26Z</time>
      </trkpt>
      <trkpt lat="43.83616" lon="3.11419">
        <ele>567</ele>
        <time>2010-01-01T03:35:52Z</time>
      </trkpt>
      <trkpt lat="43.83611" lon="3.11448">
        <ele>564</ele>
        <time>2010-01-01T03:36:38Z</time>
      </trkpt>
      <trkpt lat="43.83614" lon="3.11502">
        <ele>555</ele>
        <time>2010-01-01T03:38:02Z</time>
      </trkpt>
      <trkpt lat="43.83614" lon="3.11504">
        <ele>555</ele>
        <time>2010-01-01T03:38:06Z</time>
      </trkpt>
      <trkpt lat="43.83623" lon="3.11583">
        <ele>548</ele>
        <time>2010-01-01T03:40:10Z</time>
      </trkpt>
      <trkpt lat="43.83628" lon="3.1161">
        <ele>546</ele>
        <time>2010-01-01T03:40:53Z</time>
      </trkpt>
      <trkpt lat="43.83628" lon="3.11652">
        <ele>544</ele>
        <time>2010-01-01T03:42:00Z</time>
      </trkpt>
      <trkpt lat="43.83632" lon="3.11691">
        <ele>542</ele>
        <time>2010-01-01T03:43:01Z</time>
      </trkpt>
      <trkpt lat="43.83654" lon="3.11795">
        <ele>535</ele>
        <time>2010-01-01T03:45:50Z</time>
      </trkpt>
      <trkpt lat="43.83656" lon="3.11798">
        <ele>535</ele>
        <time>2010-01-01T03:45:57Z</time>
      </trkpt>
    </trkseg>
  </trk>
</gpx>